Terminal Aerodrome Forecast
Issued by NWS

Home | Current Version | Previous Version | Text Only | Print | Product List | Glossary On
Versions: 1 2 3 4 5 6 7 8 9 10 11 12 13 14 15 16 17 18 19 20 21 22 23 24 25 26 27 28 29 30 31 32 33 34
000
FTUS41 KBOX 042321
TAFBED
TAF
KBED 042321Z 0500/0524 05009KT 6SM -RA BR OVC015
     FM050200 03008KT 5SM -RADZ BR OVC008
     FM050700 02008KT 6SM -DZ BR VCSH OVC008
     FM051300 05010G24KT 3SM -SHRADZ BR OVC008
     FM051800 03011G28KT 2SM -SHRADZ BR OVC008
     FM052100 03011G28KT 1SM -SHRADZ BR OVC008=

USA.gov is the U.S. government's official web portal to all federal, state and local government web resources and services.